sensor_id;sensor_type;location;lat;lon;timestamp;P1;durP1;ratioP1;P2;durP2;ratioP2
842;SDS011;407;48.884;9.126;2023-03-15T00:00:46;11.73;;;3.60;;
842;SDS011;407;48.884;9.126;2023-03-15T00:03:12;9.18;;;3.60;;
842;SDS011;407;48.884;9.126;2023-03-15T00:05:45;7.53;;;2.67;;
842;SDS011;407;48.884;9.126;2023-03-15T00:08:12;7.88;;;3.40;;
842;SDS011;407;48.884;9.126;2023-03-15T00:10:42;9.75;;;3.70;;
842;SDS011;407;48.884;9.126;2023-03-15T00:13:09;9.07;;;3.40;;
842;SDS011;407;48.884;9.126;2023-03-15T00:15:36;9.50;;;3.58;;
842;SDS011;407;48.884;9.126;2023-03-15T00:18:08;9.15;;;3.20;;
842;SDS011;407;48.884;9.126;2023-03-15T00:20:35;9.35;;;3.70;;
842;SDS011;407;48.884;9.126;2023-03-15T00:23:01;9.32;;;3.97;;
842;SDS011;407;48.884;9.126;2023-03-15T00:25:28;10.07;;;2.88;;
842;SDS011;407;48.884;9.126;2023-03-15T00:27:53;11.25;;;4.10;;
842;SDS011;407;48.884;9.126;2023-03-15T00:30:19;10.45;;;3.50;;
842;SDS011;407;48.884;9.126;2023-03-15T00:32:45;9.47;;;3.57;;
842;SDS011;407;48.884;9.126;2023-03-15T00:35:10;9.10;;;3.73;;
842;SDS011;407;48.884;9.126;2023-03-15T00:37:42;12.15;;;3.72;;
842;SDS011;407;48.884;9.126;2023-03-15T00:40:08;8.63;;;3.20;;
842;SDS011;407;48.884;9.126;2023-03-15T00:42:36;8.15;;;3.28;;
842;SDS011;407;48.884;9.126;2023-03-15T00:45:02;7.43;;;2.87;;
842;SDS011;407;48.884;9.126;2023-03-15T00:47:28;9.32;;;3.20;;
842;SDS011;407;48.884;9.126;2023-03-15T00:49:53;12.03;;;4.07;;
842;SDS011;407;48.884;9.126;2023-03-15T00:52:19;8.95;;;3.40;;
842;SDS011;407;48.884;9.126;2023-03-15T00:54:52;9.60;;;3.05;;
842;SDS011;407;48.884;9.126;2023-03-15T00:57:19;7.60;;;3.05;;
842;SDS011;407;48.884;9.126;2023-03-15T00:59:45;7.80;;;3.20;;
842;SDS011;407;48.884;9.126;2023-03-15T01:02:11;9.23;;;3.00;;
842;SDS011;407;48.884;9.126;2023-03-15T01:04:37;8.82;;;2.70;;
842;SDS011;407;48.884;9.126;2023-03-15T01:07:03;7.90;;;2.80;;
842;SDS011;407;48.884;9.126;2023-03-15T01:09:29;10.32;;;2.70;;
842;SDS011;407;48.884;9.126;2023-03-15T01:11:56;7.35;;;2.60;;
842;SDS011;407;48.884;9.126;2023-03-15T01:14:22;8.60;;;2.40;;
842;SDS011;407;48.884;9.126;2023-03-15T01:16:47;9.23;;;2.80;;
842;SDS011;407;48.884;9.126;2023-03-15T01:19:14;9.73;;;2.42;;
842;SDS011;407;48.884;9.126;2023-03-15T01:21:40;7.32;;;2.40;;
842;SDS011;407;48.884;9.126;2023-03-15T01:24:06;7.03;;;2.10;;
842;SDS011;407;48.884;9.126;2023-03-15T01:26:35;6.47;;;2.20;;
842;SDS011;407;48.884;9.126;2023-03-15T01:29:01;12.30;;;2.27;;
842;SDS011;407;48.884;9.126;2023-03-15T01:31:27;7.60;;;2.13;;
842;SDS011;407;48.884;9.126;2023-03-15T01:33:54;5.47;;;1.77;;
842;SDS011;407;48.884;9.126;2023-03-15T01:36:20;7.90;;;1.90;;
842;SDS011;407;48.884;9.126;2023-03-15T01:38:46;5.50;;;1.60;;
842;SDS011;407;48.884;9.126;2023-03-15T01:41:13;6.75;;;1.60;;
842;SDS011;407;48.884;9.126;2023-03-15T01:43:43;7.32;;;1.65;;
842;SDS011;407;48.884;9.126;2023-03-15T01:51:41;5.82;;;1.70;;
842;SDS011;407;48.884;9.126;2023-03-15T01:54:29;4.90;;;1.23;;
842;SDS011;407;48.884;9.126;2023-03-15T01:59:25;5.63;;;1.52;;
842;SDS011;407;48.884;9.126;2023-03-15T02:01:55;5.85;;;1.45;;
842;SDS011;407;48.884;9.126;2023-03-15T02:04:24;7.87;;;2.20;;
842;SDS011;407;48.884;9.126;2023-03-15T02:06:58;6.75;;;1.70;;
842;SDS011;407;48.884;9.126;2023-03-15T02:09:33;6.68;;;1.75;;
842;SDS011;407;48.884;9.126;2023-03-15T02:12:05;9.05;;;2.00;;
842;SDS011;407;48.884;9.126;2023-03-15T02:14:32;8.75;;;1.60;;
842;SDS011;407;48.884;9.126;2023-03-15T02:16:58;9.82;;;1.90;;
842;SDS011;407;48.884;9.126;2023-03-15T02:25:20;6.75;;;1.38;;
842;SDS011;407;48.884;9.126;2023-03-15T02:27:47;4.68;;;1.27;;
842;SDS011;407;48.884;9.126;2023-03-15T02:30:13;5.80;;;1.37;;
842;SDS011;407;48.884;9.126;2023-03-15T02:32:39;7.47;;;1.50;;
842;SDS011;407;48.884;9.126;2023-03-15T02:35:05;5.10;;;1.20;;
842;SDS011;407;48.884;9.126;2023-03-15T02:37:32;5.32;;;1.73;;
842;SDS011;407;48.884;9.126;2023-03-15T02:39:57;7.53;;;1.40;;
842;SDS011;407;48.884;9.126;2023-03-15T02:42:23;5.90;;;1.30;;
842;SDS011;407;48.884;9.126;2023-03-15T02:44:50;6.77;;;1.80;;
842;SDS011;407;48.884;9.126;2023-03-15T02:49:49;6.50;;;1.40;;
842;SDS011;407;48.884;9.126;2023-03-15T02:52:16;6.30;;;1.60;;
842;SDS011;407;48.884;9.126;2023-03-15T02:54:41;5.70;;;1.10;;
842;SDS011;407;48.884;9.126;2023-03-15T02:57:11;6.47;;;1.30;;
842;SDS011;407;48.884;9.126;2023-03-15T02:59:38;5.20;;;1.40;;
842;SDS011;407;48.884;9.126;2023-03-15T03:02:04;7.53;;;1.40;;
842;SDS011;407;48.884;9.126;2023-03-15T03:04:30;6.57;;;1.60;;
842;SDS011;407;48.884;9.126;2023-03-15T03:06:55;12.45;;;1.10;;
842;SDS011;407;48.884;9.126;2023-03-15T03:09:22;5.90;;;1.10;;
842;SDS011;407;48.884;9.126;2023-03-15T03:11:48;5.60;;;1.50;;
842;SDS011;407;48.884;9.126;2023-03-15T03:14:14;10.33;;;1.67;;
842;SDS011;407;48.884;9.126;2023-03-15T03:16:40;7.00;;;1.23;;
842;SDS011;407;48.884;9.126;2023-03-15T03:19:06;7.40;;;1.70;;
842;SDS011;407;48.884;9.126;2023-03-15T03:21:32;5.97;;;1.20;;
842;SDS011;407;48.884;9.126;2023-03-15T03:23:58;5.70;;;1.35;;
842;SDS011;407;48.884;9.126;2023-03-15T03:26:23;5.00;;;1.40;;
842;SDS011;407;48.884;9.126;2023-03-15T03:28:51;4.43;;;1.17;;
842;SDS011;407;48.884;9.126;2023-03-15T03:31:20;4.32;;;1.10;;
842;SDS011;407;48.884;9.126;2023-03-15T03:33:47;5.80;;;1.60;;
842;SDS011;407;48.884;9.126;2023-03-15T03:36:13;6.13;;;1.27;;
842;SDS011;407;48.884;9.126;2023-03-15T03:38:40;6.30;;;1.10;;
842;SDS011;407;48.884;9.126;2023-03-15T03:41:08;7.80;;;1.55;;
842;SDS011;407;48.884;9.126;2023-03-15T03:43:34;5.00;;;1.13;;
842;SDS011;407;48.884;9.126;2023-03-15T03:46:01;6.40;;;1.20;;
842;SDS011;407;48.884;9.126;2023-03-15T03:48:27;5.28;;;1.05;;
842;SDS011;407;48.884;9.126;2023-03-15T03:50:52;5.70;;;1.00;;
842;SDS011;407;48.884;9.126;2023-03-15T03:53:18;5.47;;;1.10;;
842;SDS011;407;48.884;9.126;2023-03-15T03:55:44;5.65;;;1.40;;
842;SDS011;407;48.884;9.126;2023-03-15T03:58:10;5.40;;;1.30;;
842;SDS011;407;48.884;9.126;2023-03-15T04:00:36;8.30;;;1.40;;
842;SDS011;407;48.884;9.126;2023-03-15T04:03:02;8.03;;;2.00;;
842;SDS011;407;48.884;9.126;2023-03-15T04:05:28;6.87;;;1.27;;
842;SDS011;407;48.884;9.126;2023-03-15T04:07:53;5.82;;;1.30;;
842;SDS011;407;48.884;9.126;2023-03-15T04:10:19;4.85;;;1.10;;
842;SDS011;407;48.884;9.126;2023-03-15T04:12:52;8.40;;;1.33;;
842;SDS011;407;48.884;9.126;2023-03-15T04:15:18;8.43;;;2.10;;
842;SDS011;407;48.884;9.126;2023-03-15T04:17:46;6.75;;;1.35;;
842;SDS011;407;48.884;9.126;2023-03-15T04:20:12;7.00;;;1.40;;
842;SDS011;407;48.884;9.126;2023-03-15T04:22:39;7.95;;;1.38;;
842;SDS011;407;48.884;9.126;2023-03-15T04:25:05;5.82;;;1.73;;
842;SDS011;407;48.884;9.126;2023-03-15T04:27:31;5.78;;;1.85;;
842;SDS011;407;48.884;9.126;2023-03-15T04:29:56;5.40;;;1.75;;
842;SDS011;407;48.884;9.126;2023-03-15T04:32:22;8.27;;;2.10;;
842;SDS011;407;48.884;9.126;2023-03-15T04:34:48;9.50;;;2.00;;
842;SDS011;407;48.884;9.126;2023-03-15T04:37:16;8.05;;;2.47;;
842;SDS011;407;48.884;9.126;2023-03-15T04:39:42;11.20;;;2.50;;
842;SDS011;407;48.884;9.126;2023-03-15T04:42:08;9.90;;;2.30;;
842;SDS011;407;48.884;9.126;2023-03-15T04:44:34;8.43;;;2.30;;
842;SDS011;407;48.884;9.126;2023-03-15T04:47:00;6.20;;;2.20;;
842;SDS011;407;48.884;9.126;2023-03-15T04:49:26;11.17;;;2.90;;
842;SDS011;407;48.884;9.126;2023-03-15T04:51:51;8.43;;;3.00;;
842;SDS011;407;48.884;9.126;2023-03-15T04:54:17;7.03;;;2.67;;
842;SDS011;407;48.884;9.126;2023-03-15T04:56:43;8.23;;;2.47;;
842;SDS011;407;48.884;9.126;2023-03-15T04:59:08;9.25;;;2.45;;
842;SDS011;407;48.884;9.126;2023-03-15T05:01:35;7.47;;;2.30;;
842;SDS011;407;48.884;9.126;2023-03-15T05:04:01;9.40;;;2.85;;
842;SDS011;407;48.884;9.126;2023-03-15T05:06:27;10.60;;;2.65;;
842;SDS011;407;48.884;9.126;2023-03-15T05:08:53;10.57;;;3.00;;
842;SDS011;407;48.884;9.126;2023-03-15T05:11:20;8.40;;;3.10;;
842;SDS011;407;48.884;9.126;2023-03-15T05:13:46;12.05;;;3.38;;
842;SDS011;407;48.884;9.126;2023-03-15T05:16:11;7.33;;;3.20;;
842;SDS011;407;48.884;9.126;2023-03-15T05:18:37;8.17;;;2.90;;
842;SDS011;407;48.884;9.126;2023-03-15T05:21:02;7.30;;;2.60;;
842;SDS011;407;48.884;9.126;2023-03-15T05:23:30;7.82;;;2.80;;
842;SDS011;407;48.884;9.126;2023-03-15T05:25:58;9.75;;;2.95;;
842;SDS011;407;48.884;9.126;2023-03-15T05:28:24;11.05;;;3.10;;
842;SDS011;407;48.884;9.126;2023-03-15T05:30:50;8.18;;;2.90;;
842;SDS011;407;48.884;9.126;2023-03-15T05:33:19;8.20;;;2.80;;
842;SDS011;407;48.884;9.126;2023-03-15T05:35:45;7.87;;;2.77;;
842;SDS011;407;48.884;9.126;2023-03-15T05:38:12;8.18;;;2.90;;
842;SDS011;407;48.884;9.126;2023-03-15T05:40:45;10.40;;;3.30;;
842;SDS011;407;48.884;9.126;2023-03-15T05:43:11;11.13;;;2.63;;
842;SDS011;407;48.884;9.126;2023-03-15T05:45:37;10.73;;;3.03;;
842;SDS011;407;48.884;9.126;2023-03-15T05:48:03;8.85;;;3.28;;
842;SDS011;407;48.884;9.126;2023-03-15T05:50:29;12.60;;;3.38;;
842;SDS011;407;48.884;9.126;2023-03-15T05:52:55;10.10;;;3.20;;
842;SDS011;407;48.884;9.126;2023-03-15T05:55:21;7.72;;;3.13;;
842;SDS011;407;48.884;9.126;2023-03-15T05:57:48;7.70;;;3.40;;
842;SDS011;407;48.884;9.126;2023-03-15T06:00:13;10.90;;;2.63;;
842;SDS011;407;48.884;9.126;2023-03-15T06:02:40;6.93;;;2.30;;
842;SDS011;407;48.884;9.126;2023-03-15T06:05:07;10.45;;;2.70;;
842;SDS011;407;48.884;9.126;2023-03-15T06:07:33;10.82;;;2.60;;
842;SDS011;407;48.884;9.126;2023-03-15T06:09:58;8.25;;;2.88;;
842;SDS011;407;48.884;9.126;2023-03-15T06:12:24;7.07;;;2.27;;
842;SDS011;407;48.884;9.126;2023-03-15T06:14:49;7.93;;;2.22;;
842;SDS011;407;48.884;9.126;2023-03-15T06:17:15;7.33;;;2.40;;
842;SDS011;407;48.884;9.126;2023-03-15T06:19:41;8.60;;;2.08;;
842;SDS011;407;48.884;9.126;2023-03-15T06:22:06;6.47;;;2.10;;
842;SDS011;407;48.884;9.126;2023-03-15T06:24:32;11.15;;;2.00;;
842;SDS011;407;48.884;9.126;2023-03-15T06:26:58;8.50;;;2.03;;
842;SDS011;407;48.884;9.126;2023-03-15T06:29:23;8.68;;;2.30;;
842;SDS011;407;48.884;9.126;2023-03-15T06:31:49;9.40;;;2.10;;
842;SDS011;407;48.884;9.126;2023-03-15T06:34:15;9.40;;;2.20;;
842;SDS011;407;48.884;9.126;2023-03-15T06:36:41;13.73;;;2.47;;
842;SDS011;407;48.884;9.126;2023-03-15T06:39:10;12.50;;;2.13;;
842;SDS011;407;48.884;9.126;2023-03-15T06:41:36;7.10;;;1.90;;
842;SDS011;407;48.884;9.126;2023-03-15T06:44:03;8.60;;;2.38;;
842;SDS011;407;48.884;9.126;2023-03-15T06:46:29;8.83;;;1.77;;
842;SDS011;407;48.884;9.126;2023-03-15T06:48:55;8.30;;;1.80;;
842;SDS011;407;48.884;9.126;2023-03-15T06:51:21;7.67;;;2.00;;
842;SDS011;407;48.884;9.126;2023-03-15T06:53:46;10.93;;;1.90;;
842;SDS011;407;48.884;9.126;2023-03-15T06:56:12;8.00;;;2.40;;
842;SDS011;407;48.884;9.126;2023-03-15T06:58:38;6.50;;;2.50;;
842;SDS011;407;48.884;9.126;2023-03-15T07:01:04;6.60;;;1.90;;
842;SDS011;407;48.884;9.126;2023-03-15T07:03:29;8.50;;;2.20;;
842;SDS011;407;48.884;9.126;2023-03-15T07:05:55;7.70;;;2.50;;
842;SDS011;407;48.884;9.126;2023-03-15T07:08:21;8.63;;;3.00;;
842;SDS011;407;48.884;9.126;2023-03-15T07:10:48;9.07;;;2.50;;
842;SDS011;407;48.884;9.126;2023-03-15T07:13:14;9.50;;;2.70;;
842;SDS011;407;48.884;9.126;2023-03-15T07:15:40;6.80;;;2.50;;
842;SDS011;407;48.884;9.126;2023-03-15T07:18:06;7.87;;;2.37;;
842;SDS011;407;48.884;9.126;2023-03-15T07:20:32;11.00;;;3.00;;
842;SDS011;407;48.884;9.126;2023-03-15T07:22:58;5.97;;;2.10;;
842;SDS011;407;48.884;9.126;2023-03-15T07:25:24;7.93;;;2.20;;
842;SDS011;407;48.884;9.126;2023-03-15T07:27:50;6.60;;;2.00;;
842;SDS011;407;48.884;9.126;2023-03-15T07:30:16;9.32;;;2.50;;
842;SDS011;407;48.884;9.126;2023-03-15T07:32:42;8.23;;;2.37;;
842;SDS011;407;48.884;9.126;2023-03-15T07:35:08;7.13;;;1.88;;
842;SDS011;407;48.884;9.126;2023-03-15T07:37:34;9.98;;;2.78;;
842;SDS011;407;48.884;9.126;2023-03-15T07:40:00;7.63;;;1.88;;
842;SDS011;407;48.884;9.126;2023-03-15T07:42:34;6.28;;;2.20;;
842;SDS011;407;48.884;9.126;2023-03-15T07:45:06;7.20;;;1.90;;
842;SDS011;407;48.884;9.126;2023-03-15T07:47:33;5.35;;;1.50;;
842;SDS011;407;48.884;9.126;2023-03-15T07:49:58;7.93;;;1.75;;
842;SDS011;407;48.884;9.126;2023-03-15T07:52:24;13.45;;;2.80;;
842;SDS011;407;48.884;9.126;2023-03-15T07:54:50;8.30;;;1.73;;
842;SDS011;407;48.884;9.126;2023-03-15T07:57:15;9.73;;;2.30;;
842;SDS011;407;48.884;9.126;2023-03-15T07:59:41;6.40;;;1.90;;
842;SDS011;407;48.884;9.126;2023-03-15T08:02:08;9.88;;;2.55;;
842;SDS011;407;48.884;9.126;2023-03-15T08:04:38;6.22;;;1.83;;
842;SDS011;407;48.884;9.126;2023-03-15T08:07:04;7.93;;;1.80;;
842;SDS011;407;48.884;9.126;2023-03-15T08:09:30;5.10;;;1.60;;
842;SDS011;407;48.884;9.126;2023-03-15T08:11:59;8.73;;;1.98;;
842;SDS011;407;48.884;9.126;2023-03-15T08:14:25;7.55;;;1.70;;
842;SDS011;407;48.884;9.126;2023-03-15T08:16:51;8.70;;;2.10;;
842;SDS011;407;48.884;9.126;2023-03-15T08:19:17;7.20;;;1.90;;
842;SDS011;407;48.884;9.126;2023-03-15T08:21:42;7.03;;;2.03;;
842;SDS011;407;48.884;9.126;2023-03-15T08:24:09;9.77;;;2.58;;
842;SDS011;407;48.884;9.126;2023-03-15T08:26:36;4.82;;;1.40;;
842;SDS011;407;48.884;9.126;2023-03-15T08:29:01;10.20;;;2.55;;
842;SDS011;407;48.884;9.126;2023-03-15T08:31:27;6.10;;;1.60;;
842;SDS011;407;48.884;9.126;2023-03-15T08:33:53;8.65;;;2.08;;
842;SDS011;407;48.884;9.126;2023-03-15T08:36:19;6.40;;;1.50;;
842;SDS011;407;48.884;9.126;2023-03-15T08:38:44;10.05;;;1.90;;
842;SDS011;407;48.884;9.126;2023-03-15T08:41:10;9.63;;;1.70;;
842;SDS011;407;48.884;9.126;2023-03-15T08:43:36;7.50;;;1.70;;
842;SDS011;407;48.884;9.126;2023-03-15T08:46:01;6.90;;;1.50;;
842;SDS011;407;48.884;9.126;2023-03-15T08:48:27;8.30;;;1.73;;
842;SDS011;407;48.884;9.126;2023-03-15T08:50:53;9.70;;;2.80;;
842;SDS011;407;48.884;9.126;2023-03-15T08:53:19;5.47;;;1.40;;
842;SDS011;407;48.884;9.126;2023-03-15T08:55:44;6.30;;;1.20;;
842;SDS011;407;48.884;9.126;2023-03-15T08:58:12;9.13;;;1.77;;
842;SDS011;407;48.884;9.126;2023-03-15T09:00:38;5.82;;;1.10;;
842;SDS011;407;48.884;9.126;2023-03-15T09:03:04;5.80;;;1.13;;
842;SDS011;407;48.884;9.126;2023-03-15T09:05:29;6.87;;;1.10;;
842;SDS011;407;48.884;9.126;2023-03-15T09:07:55;10.23;;;1.57;;
842;SDS011;407;48.884;9.126;2023-03-15T09:10:21;8.60;;;1.30;;
842;SDS011;407;48.884;9.126;2023-03-15T09:12:47;5.47;;;1.10;;
842;SDS011;407;48.884;9.126;2023-03-15T09:15:16;6.77;;;1.00;;
842;SDS011;407;48.884;9.126;2023-03-15T09:17:42;6.90;;;1.05;;
842;SDS011;407;48.884;9.126;2023-03-15T09:20:08;8.30;;;1.20;;
842;SDS011;407;48.884;9.126;2023-03-15T09:22:39;6.35;;;0.98;;
842;SDS011;407;48.884;9.126;2023-03-15T09:25:06;8.75;;;1.30;;
842;SDS011;407;48.884;9.126;2023-03-15T09:27:33;7.10;;;1.80;;
842;SDS011;407;48.884;9.126;2023-03-15T09:29:59;6.20;;;1.00;;
842;SDS011;407;48.884;9.126;2023-03-15T09:32:25;7.70;;;1.50;;
842;SDS011;407;48.884;9.126;2023-03-15T09:34:50;7.80;;;1.30;;
842;SDS011;407;48.884;9.126;2023-03-15T09:37:17;7.60;;;0.90;;
842;SDS011;407;48.884;9.126;2023-03-15T09:39:44;4.87;;;0.90;;
842;SDS011;407;48.884;9.126;2023-03-15T09:42:18;6.00;;;1.10;;
842;SDS011;407;48.884;9.126;2023-03-15T09:44:59;6.43;;;1.40;;
842;SDS011;407;48.884;9.126;2023-03-15T09:47:59;8.13;;;0.93;;
842;SDS011;407;48.884;9.126;2023-03-15T09:53:17;7.78;;;1.08;;
842;SDS011;407;48.884;9.126;2023-03-15T09:55:48;8.30;;;1.00;;
842;SDS011;407;48.884;9.126;2023-03-15T09:58:20;5.30;;;0.90;;
842;SDS011;407;48.884;9.126;2023-03-15T10:00:57;8.77;;;1.30;;
842;SDS011;407;48.884;9.126;2023-03-15T10:06:18;5.20;;;0.95;;
842;SDS011;407;48.884;9.126;2023-03-15T10:08:56;5.22;;;0.90;;
842;SDS011;407;48.884;9.126;2023-03-15T10:11:26;8.97;;;1.40;;
842;SDS011;407;48.884;9.126;2023-03-15T10:17:10;5.40;;;1.10;;
842;SDS011;407;48.884;9.126;2023-03-15T10:19:47;8.20;;;1.10;;
842;SDS011;407;48.884;9.126;2023-03-15T10:22:19;7.03;;;1.00;;
842;SDS011;407;48.884;9.126;2023-03-15T10:25:03;9.32;;;1.30;;
842;SDS011;407;48.884;9.126;2023-03-15T10:32:41;9.90;;;1.30;;
842;SDS011;407;48.884;9.126;2023-03-15T10:35:15;7.32;;;1.05;;
842;SDS011;407;48.884;9.126;2023-03-15T10:37:42;7.10;;;1.30;;
842;SDS011;407;48.884;9.126;2023-03-15T10:40:08;7.78;;;1.10;;
842;SDS011;407;48.884;9.126;2023-03-15T10:42:40;6.00;;;1.10;;
842;SDS011;407;48.884;9.126;2023-03-15T10:45:26;5.35;;;1.02;;
842;SDS011;407;48.884;9.126;2023-03-15T10:47:52;5.80;;;1.00;;
842;SDS011;407;48.884;9.126;2023-03-15T10:50:29;5.47;;;1.00;;
842;SDS011;407;48.884;9.126;2023-03-15T10:52:56;8.10;;;0.90;;
842;SDS011;407;48.884;9.126;2023-03-15T10:57:58;4.82;;;0.90;;
842;SDS011;407;48.884;9.126;2023-03-15T11:00:36;5.80;;;0.90;;
842;SDS011;407;48.884;9.126;2023-03-15T11:03:03;5.10;;;0.85;;
842;SDS011;407;48.884;9.126;2023-03-15T11:05:42;6.70;;;1.00;;
842;SDS011;407;48.884;9.126;2023-03-15T11:08:13;4.95;;;0.60;;
842;SDS011;407;48.884;9.126;2023-03-15T11:10:45;5.55;;;0.80;;
842;SDS011;407;48.884;9.126;2023-03-15T11:13:19;5.20;;;0.85;;
842;SDS011;407;48.884;9.126;2023-03-15T11:18:46;6.32;;;0.60;;
842;SDS011;407;48.884;9.126;2023-03-15T11:21:17;6.32;;;0.93;;
842;SDS011;407;48.884;9.126;2023-03-15T11:23:45;5.00;;;1.10;;
842;SDS011;407;48.884;9.126;2023-03-15T11:26:17;5.70;;;1.00;;
842;SDS011;407;48.884;9.126;2023-03-15T11:28:49;6.68;;;0.90;;
842;SDS011;407;48.884;9.126;2023-03-15T11:31:21;6.40;;;0.90;;
842;SDS011;407;48.884;9.126;2023-03-15T11:33:51;4.30;;;0.70;;
842;SDS011;407;48.884;9.126;2023-03-15T11:36:39;5.80;;;0.80;;
842;SDS011;407;48.884;9.126;2023-03-15T11:39:12;5.97;;;1.08;;
842;SDS011;407;48.884;9.126;2023-03-15T11:47:00;6.60;;;0.90;;
842;SDS011;407;48.884;9.126;2023-03-15T11:49:50;6.57;;;1.40;;
842;SDS011;407;48.884;9.126;2023-03-15T11:52:20;4.65;;;0.60;;
842;SDS011;407;48.884;9.126;2023-03-15T11:54:48;5.03;;;0.80;;
842;SDS011;407;48.884;9.126;2023-03-15T12:02:52;4.50;;;0.80;;
842;SDS011;407;48.884;9.126;2023-03-15T12:08:18;5.20;;;0.90;;
842;SDS011;407;48.884;9.126;2023-03-15T12:10:51;4.55;;;0.80;;
842;SDS011;407;48.884;9.126;2023-03-15T12:13:38;4.90;;;0.70;;
842;SDS011;407;48.884;9.126;2023-03-15T12:16:14;6.05;;;1.20;;
842;SDS011;407;48.884;9.126;2023-03-15T12:18:44;6.25;;;1.35;;
842;SDS011;407;48.884;9.126;2023-03-15T12:21:11;4.88;;;0.80;;
842;SDS011;407;48.884;9.126;2023-03-15T12:23:47;5.20;;;1.07;;
842;SDS011;407;48.884;9.126;2023-03-15T12:26:23;5.18;;;1.10;;
842;SDS011;407;48.884;9.126;2023-03-15T12:31:25;6.70;;;1.20;;
842;SDS011;407;48.884;9.126;2023-03-15T12:34:10;6.20;;;1.30;;
842;SDS011;407;48.884;9.126;2023-03-15T12:36:47;12.20;;;2.40;;
842;SDS011;407;48.884;9.126;2023-03-15T12:41:44;7.33;;;2.30;;
842;SDS011;407;48.884;9.126;2023-03-15T12:44:17;7.18;;;1.70;;
842;SDS011;407;48.884;9.126;2023-03-15T12:46:56;8.93;;;1.40;;
842;SDS011;407;48.884;9.126;2023-03-15T12:49:28;7.60;;;1.75;;
842;SDS011;407;48.884;9.126;2023-03-15T12:52:00;6.45;;;1.63;;
842;SDS011;407;48.884;9.126;2023-03-15T12:54:33;6.88;;;1.77;;
842;SDS011;407;48.884;9.126;2023-03-15T12:57:11;7.10;;;1.00;;
842;SDS011;407;48.884;9.126;2023-03-15T13:00:39;5.50;;;1.27;;
842;SDS011;407;48.884;9.126;2023-03-15T13:05:29;6.70;;;1.38;;
842;SDS011;407;48.884;9.126;2023-03-15T13:16:48;4.60;;;0.90;;
842;SDS011;407;48.884;9.126;2023-03-15T13:19:26;5.53;;;1.10;;
842;SDS011;407;48.884;9.126;2023-03-15T13:22:04;7.68;;;2.30;;
842;SDS011;407;48.884;9.126;2023-03-15T13:27:47;6.47;;;1.80;;
842;SDS011;407;48.884;9.126;2023-03-15T13:33:08;5.30;;;1.10;;
842;SDS011;407;48.884;9.126;2023-03-15T13:41:19;7.55;;;1.30;;
842;SDS011;407;48.884;9.126;2023-03-15T13:43:50;5.40;;;1.00;;
842;SDS011;407;48.884;9.126;2023-03-15T13:46:19;5.10;;;1.13;;
842;SDS011;407;48.884;9.126;2023-03-15T13:48:49;8.65;;;1.35;;
842;SDS011;407;48.884;9.126;2023-03-15T13:51:23;6.57;;;1.30;;
842;SDS011;407;48.884;9.126;2023-03-15T13:53:54;5.28;;;1.08;;
842;SDS011;407;48.884;9.126;2023-03-15T13:56:52;7.50;;;1.40;;
842;SDS011;407;48.884;9.126;2023-03-15T13:59:22;5.73;;;1.17;;
842;SDS011;407;48.884;9.126;2023-03-15T14:01:54;5.35;;;1.27;;
842;SDS011;407;48.884;9.126;2023-03-15T14:04:21;6.67;;;1.00;;
842;SDS011;407;48.884;9.126;2023-03-15T14:06:49;4.70;;;1.00;;
842;SDS011;407;48.884;9.126;2023-03-15T14:09:21;6.20;;;1.20;;
842;SDS011;407;48.884;9.126;2023-03-15T14:12:05;5.82;;;1.25;;
842;SDS011;407;48.884;9.126;2023-03-15T14:14:45;6.27;;;1.27;;
842;SDS011;407;48.884;9.126;2023-03-15T14:17:21;5.23;;;1.10;;
842;SDS011;407;48.884;9.126;2023-03-15T14:19:51;4.65;;;0.80;;
842;SDS011;407;48.884;9.126;2023-03-15T14:22:19;6.80;;;1.00;;
842;SDS011;407;48.884;9.126;2023-03-15T14:24:46;4.80;;;0.88;;
842;SDS011;407;48.884;9.126;2023-03-15T14:27:17;5.43;;;0.90;;
842;SDS011;407;48.884;9.126;2023-03-15T14:29:53;5.10;;;0.90;;
842;SDS011;407;48.884;9.126;2023-03-15T14:34:57;5.88;;;1.40;;
842;SDS011;407;48.884;9.126;2023-03-15T14:37:36;4.80;;;0.82;;
842;SDS011;407;48.884;9.126;2023-03-15T14:40:26;4.80;;;0.70;;
842;SDS011;407;48.884;9.126;2023-03-15T14:42:58;6.90;;;0.80;;
842;SDS011;407;48.884;9.126;2023-03-15T14:45:25;7.43;;;1.67;;
842;SDS011;407;48.884;9.126;2023-03-15T14:47:52;5.33;;;1.37;;
842;SDS011;407;48.884;9.126;2023-03-15T14:50:21;6.95;;;1.33;;
842;SDS011;407;48.884;9.126;2023-03-15T14:52:48;4.80;;;1.10;;
842;SDS011;407;48.884;9.126;2023-03-15T14:55:16;4.97;;;0.90;;
842;SDS011;407;48.884;9.126;2023-03-15T14:57:44;6.65;;;1.40;;
842;SDS011;407;48.884;9.126;2023-03-15T15:00:11;5.60;;;1.00;;
842;SDS011;407;48.884;9.126;2023-03-15T15:02:40;5.18;;;1.30;;
842;SDS011;407;48.884;9.126;2023-03-15T15:07:50;5.05;;;1.30;;
842;SDS011;407;48.884;9.126;2023-03-15T15:10:20;4.50;;;1.10;;
842;SDS011;407;48.884;9.126;2023-03-15T15:12:47;5.10;;;1.23;;
842;SDS011;407;48.884;9.126;2023-03-15T15:15:16;4.18;;;0.80;;
842;SDS011;407;48.884;9.126;2023-03-15T15:17:45;4.90;;;1.10;;
842;SDS011;407;48.884;9.126;2023-03-15T15:20:11;4.30;;;1.10;;
842;SDS011;407;48.884;9.126;2023-03-15T15:22:40;4.78;;;1.10;;
842;SDS011;407;48.884;9.126;2023-03-15T15:25:20;5.28;;;0.90;;
842;SDS011;407;48.884;9.126;2023-03-15T15:27:48;5.00;;;1.10;;
842;SDS011;407;48.884;9.126;2023-03-15T15:30:15;5.40;;;1.30;;
842;SDS011;407;48.884;9.126;2023-03-15T15:32:45;4.30;;;1.00;;
842;SDS011;407;48.884;9.126;2023-03-15T15:35:12;8.02;;;1.85;;
842;SDS011;407;48.884;9.126;2023-03-15T15:37:40;6.30;;;1.17;;
842;SDS011;407;48.884;9.126;2023-03-15T15:40:10;5.50;;;1.80;;
842;SDS011;407;48.884;9.126;2023-03-15T15:42:44;7.03;;;1.50;;
842;SDS011;407;48.884;9.126;2023-03-15T15:45:11;7.93;;;1.77;;
842;SDS011;407;48.884;9.126;2023-03-15T15:47:38;8.30;;;2.10;;
842;SDS011;407;48.884;9.126;2023-03-15T15:50:04;8.13;;;2.25;;
842;SDS011;407;48.884;9.126;2023-03-15T15:52:31;7.20;;;2.40;;
842;SDS011;407;48.884;9.126;2023-03-15T15:54:57;6.35;;;2.33;;
842;SDS011;407;48.884;9.126;2023-03-15T15:57:26;5.97;;;2.08;;
842;SDS011;407;48.884;9.126;2023-03-15T15:59:52;8.27;;;2.60;;
842;SDS011;407;48.884;9.126;2023-03-15T16:02:17;8.15;;;2.20;;
842;SDS011;407;48.884;9.126;2023-03-15T16:04:50;6.32;;;2.30;;
842;SDS011;407;48.884;9.126;2023-03-15T16:07:15;6.00;;;2.00;;
842;SDS011;407;48.884;9.126;2023-03-15T16:09:42;7.72;;;2.60;;
842;SDS011;407;48.884;9.126;2023-03-15T16:12:11;6.38;;;2.50;;
842;SDS011;407;48.884;9.126;2023-03-15T16:14:37;8.38;;;2.45;;
842;SDS011;407;48.884;9.126;2023-03-15T16:17:07;7.33;;;2.50;;
842;SDS011;407;48.884;9.126;2023-03-15T16:19:35;10.10;;;2.85;;
842;SDS011;407;48.884;9.126;2023-03-15T16:22:00;8.07;;;2.78;;
842;SDS011;407;48.884;9.126;2023-03-15T16:24:27;8.63;;;3.37;;
842;SDS011;407;48.884;9.126;2023-03-15T16:26:59;7.10;;;2.70;;
842;SDS011;407;48.884;9.126;2023-03-15T16:29:29;7.70;;;3.08;;
842;SDS011;407;48.884;9.126;2023-03-15T16:32:01;7.65;;;2.60;;
842;SDS011;407;48.884;9.126;2023-03-15T16:34:27;7.65;;;2.17;;
842;SDS011;407;48.884;9.126;2023-03-15T16:36:53;6.00;;;2.10;;
842;SDS011;407;48.884;9.126;2023-03-15T16:39:19;7.03;;;2.25;;
842;SDS011;407;48.884;9.126;2023-03-15T16:41:46;6.30;;;2.20;;
842;SDS011;407;48.884;9.126;2023-03-15T16:44:13;6.10;;;2.10;;
842;SDS011;407;48.884;9.126;2023-03-15T16:46:40;12.43;;;3.15;;
842;SDS011;407;48.884;9.126;2023-03-15T16:49:06;6.50;;;2.22;;
842;SDS011;407;48.884;9.126;2023-03-15T16:51:31;7.07;;;2.60;;
842;SDS011;407;48.884;9.126;2023-03-15T16:53:58;7.90;;;2.80;;
842;SDS011;407;48.884;9.126;2023-03-15T16:56:24;5.20;;;2.00;;
842;SDS011;407;48.884;9.126;2023-03-15T16:58:53;6.33;;;2.73;;
842;SDS011;407;48.884;9.126;2023-03-15T17:01:19;6.50;;;2.30;;
842;SDS011;407;48.884;9.126;2023-03-15T17:03:44;6.72;;;2.10;;
842;SDS011;407;48.884;9.126;2023-03-15T17:06:16;6.17;;;2.20;;
842;SDS011;407;48.884;9.126;2023-03-15T17:08:47;5.75;;;1.70;;
842;SDS011;407;48.884;9.126;2023-03-15T17:11:13;5.57;;;1.90;;
842;SDS011;407;48.884;9.126;2023-03-15T17:13:41;7.57;;;2.00;;
842;SDS011;407;48.884;9.126;2023-03-15T17:16:11;5.47;;;1.80;;